首页
METAR-TAF:

METAR-TAF

机场 :

Dumas, 得克萨斯州, 美国

纬度: 35-51-28N, 经度: 102-00-47W, 海拔: 1129米

当前天气观测

该预报发布于28分钟前的08:55 UTC
风速14节,风向,有时为18节阵风
温度 19°C
湿度 78%
气压 1017 hPa
能見度: 16.1公里
阴天层高于2200英尺

METAR: KDUX 190855Z AUTO 36014G18KT 10SM OVC022 19/15 A3002 RMK AO2 T01940152

时间: 04:23 (09:23 UTC)


TAF: 丢失

超过4000个机场的气象观测和天气预报(METAR&TAF报告)。

可查询的气象台以黄色和红色小点在地图上表示。

将鼠标移到小点上方,可查看气象台名称。

然后点击查看天气观测和预报。

如需切换地图:点击带黑十字的绿色按钮放大地图;点击带横线的绿色按钮缩小地图;或者点击绿色箭头查看邻近地区的地图。


METAR-TAF: